sensor_id;sensor_type;location;lat;lon;timestamp;temperature;humidity
20143;DHT22;10509;46.476;7.134;2023-08-06T00:00:23;16.80;99.90
20143;DHT22;10509;46.476;7.134;2023-08-06T00:02:49;16.90;99.90
20143;DHT22;10509;46.476;7.134;2023-08-06T00:05:15;16.90;99.90
20143;DHT22;10509;46.476;7.134;2023-08-06T00:07:44;16.90;99.90
20143;DHT22;10509;46.476;7.134;2023-08-06T00:10:10;16.90;99.90
20143;DHT22;10509;46.476;7.134;2023-08-06T00:12:36;16.90;99.90
20143;DHT22;10509;46.476;7.134;2023-08-06T00:15:01;16.90;99.90
20143;DHT22;10509;46.476;7.134;2023-08-06T00:17:27;16.90;99.90
20143;DHT22;10509;46.476;7.134;2023-08-06T00:19:53;16.90;99.90
20143;DHT22;10509;46.476;7.134;2023-08-06T00:22:18;16.90;99.90
20143;DHT22;10509;46.476;7.134;2023-08-06T00:24:44;16.80;99.90
20143;DHT22;10509;46.476;7.134;2023-08-06T00:27:09;16.80;99.90
20143;DHT22;10509;46.476;7.134;2023-08-06T00:29:35;16.80;99.90
20143;DHT22;10509;46.476;7.134;2023-08-06T00:32:01;16.80;99.90
20143;DHT22;10509;46.476;7.134;2023-08-06T00:34:26;16.80;99.90
20143;DHT22;10509;46.476;7.134;2023-08-06T00:36:52;16.70;99.90
20143;DHT22;10509;46.476;7.134;2023-08-06T00:39:19;16.70;99.90
20143;DHT22;10509;46.476;7.134;2023-08-06T00:41:44;16.70;99.90
20143;DHT22;10509;46.476;7.134;2023-08-06T00:44:10;16.70;99.90
20143;DHT22;10509;46.476;7.134;2023-08-06T00:46:36;16.70;99.90
20143;DHT22;10509;46.476;7.134;2023-08-06T00:49:01;16.70;99.90
20143;DHT22;10509;46.476;7.134;2023-08-06T00:51:27;16.70;99.90
20143;DHT22;10509;46.476;7.134;2023-08-06T00:53:53;16.70;99.90
20143;DHT22;10509;46.476;7.134;2023-08-06T00:56:20;16.70;99.90
20143;DHT22;10509;46.476;7.134;2023-08-06T00:58:45;16.70;99.90
20143;DHT22;10509;46.476;7.134;2023-08-06T01:01:11;16.70;99.90
20143;DHT22;10509;46.476;7.134;2023-08-06T01:03:37;16.70;99.90
20143;DHT22;10509;46.476;7.134;2023-08-06T01:06:03;16.70;99.90
20143;DHT22;10509;46.476;7.134;2023-08-06T01:09:03;16.60;99.90
20143;DHT22;10509;46.476;7.134;2023-08-06T01:14:37;16.60;99.90
20143;DHT22;10509;46.476;7.134;2023-08-06T01:17:08;16.60;99.90
20143;DHT22;10509;46.476;7.134;2023-08-06T01:19:33;16.50;99.90
20143;DHT22;10509;46.476;7.134;2023-08-06T01:21:59;16.50;99.90
20143;DHT22;10509;46.476;7.134;2023-08-06T01:24:24;16.50;99.90
20143;DHT22;10509;46.476;7.134;2023-08-06T01:27:13;16.50;99.90
20143;DHT22;10509;46.476;7.134;2023-08-06T01:29:48;16.60;99.90
20143;DHT22;10509;46.476;7.134;2023-08-06T01:32:19;16.50;99.90
20143;DHT22;10509;46.476;7.134;2023-08-06T01:34:47;16.50;99.90
20143;DHT22;10509;46.476;7.134;2023-08-06T01:37:14;16.50;99.90
20143;DHT22;10509;46.476;7.134;2023-08-06T01:39:42;16.50;99.90
20143;DHT22;10509;46.476;7.134;2023-08-06T01:42:08;16.40;99.90
20143;DHT22;10509;46.476;7.134;2023-08-06T01:44:34;16.50;99.90
20143;DHT22;10509;46.476;7.134;2023-08-06T01:46:59;16.50;99.90
20143;DHT22;10509;46.476;7.134;2023-08-06T01:49:25;16.50;99.90
20143;DHT22;10509;46.476;7.134;2023-08-06T01:51:50;16.50;99.90
20143;DHT22;10509;46.476;7.134;2023-08-06T01:54:16;16.50;99.90
20143;DHT22;10509;46.476;7.134;2023-08-06T01:56:42;16.40;99.90
20143;DHT22;10509;46.476;7.134;2023-08-06T01:59:07;16.40;99.90
20143;DHT22;10509;46.476;7.134;2023-08-06T02:01:33;16.40;99.90
20143;DHT22;10509;46.476;7.134;2023-08-06T02:03:58;16.40;99.90
20143;DHT22;10509;46.476;7.134;2023-08-06T02:06:24;16.40;99.90
20143;DHT22;10509;46.476;7.134;2023-08-06T02:08:50;16.30;99.90
20143;DHT22;10509;46.476;7.134;2023-08-06T02:11:15;16.30;99.90
20143;DHT22;10509;46.476;7.134;2023-08-06T02:13:41;16.20;99.90
20143;DHT22;10509;46.476;7.134;2023-08-06T02:16:07;16.20;99.90
20143;DHT22;10509;46.476;7.134;2023-08-06T02:18:34;16.20;99.90
20143;DHT22;10509;46.476;7.134;2023-08-06T02:20:59;16.10;99.90
20143;DHT22;10509;46.476;7.134;2023-08-06T02:23:26;16.10;99.90
20143;DHT22;10509;46.476;7.134;2023-08-06T02:26:02;16.10;99.90
20143;DHT22;10509;46.476;7.134;2023-08-06T02:28:29;16.20;99.90
20143;DHT22;10509;46.476;7.134;2023-08-06T02:30:55;16.20;99.90
20143;DHT22;10509;46.476;7.134;2023-08-06T02:33:21;16.10;99.90
20143;DHT22;10509;46.476;7.134;2023-08-06T02:35:47;16.10;99.90
20143;DHT22;10509;46.476;7.134;2023-08-06T02:38:12;16.20;99.90
20143;DHT22;10509;46.476;7.134;2023-08-06T02:40:43;16.20;99.90
20143;DHT22;10509;46.476;7.134;2023-08-06T02:43:10;16.20;99.90
20143;DHT22;10509;46.476;7.134;2023-08-06T02:45:35;16.20;99.90
20143;DHT22;10509;46.476;7.134;2023-08-06T02:48:01;16.20;99.90
20143;DHT22;10509;46.476;7.134;2023-08-06T02:50:27;16.10;99.90
20143;DHT22;10509;46.476;7.134;2023-08-06T02:52:53;16.10;99.90
20143;DHT22;10509;46.476;7.134;2023-08-06T02:55:19;16.10;99.90
20143;DHT22;10509;46.476;7.134;2023-08-06T02:57:44;16.10;99.90
20143;DHT22;10509;46.476;7.134;2023-08-06T03:00:10;16.20;99.90
20143;DHT22;10509;46.476;7.134;2023-08-06T03:02:37;16.10;99.90
20143;DHT22;10509;46.476;7.134;2023-08-06T03:05:03;16.10;99.90
20143;DHT22;10509;46.476;7.134;2023-08-06T03:07:29;16.00;99.90
20143;DHT22;10509;46.476;7.134;2023-08-06T03:09:54;16.00;99.90
20143;DHT22;10509;46.476;7.134;2023-08-06T03:12:20;16.00;99.90
20143;DHT22;10509;46.476;7.134;2023-08-06T03:14:46;16.00;99.90
20143;DHT22;10509;46.476;7.134;2023-08-06T03:17:11;15.90;99.90
20143;DHT22;10509;46.476;7.134;2023-08-06T03:19:37;15.90;99.90
20143;DHT22;10509;46.476;7.134;2023-08-06T03:22:03;15.90;99.90
20143;DHT22;10509;46.476;7.134;2023-08-06T03:24:28;15.80;99.90
20143;DHT22;10509;46.476;7.134;2023-08-06T03:26:54;15.80;99.90
20143;DHT22;10509;46.476;7.134;2023-08-06T03:29:19;15.80;99.90
20143;DHT22;10509;46.476;7.134;2023-08-06T03:31:46;15.70;99.90
20143;DHT22;10509;46.476;7.134;2023-08-06T03:34:12;15.60;99.90
20143;DHT22;10509;46.476;7.134;2023-08-06T03:36:37;15.60;99.90
20143;DHT22;10509;46.476;7.134;2023-08-06T03:39:03;15.50;99.90
20143;DHT22;10509;46.476;7.134;2023-08-06T03:41:29;15.40;99.90
20143;DHT22;10509;46.476;7.134;2023-08-06T03:43:54;15.40;99.90
20143;DHT22;10509;46.476;7.134;2023-08-06T03:46:20;15.40;99.90
20143;DHT22;10509;46.476;7.134;2023-08-06T03:48:46;15.40;99.90
20143;DHT22;10509;46.476;7.134;2023-08-06T03:51:11;15.40;99.90
20143;DHT22;10509;46.476;7.134;2023-08-06T03:53:37;15.30;99.90
20143;DHT22;10509;46.476;7.134;2023-08-06T03:56:03;15.30;99.90
20143;DHT22;10509;46.476;7.134;2023-08-06T03:58:28;15.20;99.90
20143;DHT22;10509;46.476;7.134;2023-08-06T04:00:59;15.20;99.90
20143;DHT22;10509;46.476;7.134;2023-08-06T04:03:25;15.20;99.90
20143;DHT22;10509;46.476;7.134;2023-08-06T04:05:51;15.20;99.90
20143;DHT22;10509;46.476;7.134;2023-08-06T04:08:17;15.20;99.90
20143;DHT22;10509;46.476;7.134;2023-08-06T04:10:42;15.20;99.90
20143;DHT22;10509;46.476;7.134;2023-08-06T04:13:08;15.20;99.90
20143;DHT22;10509;46.476;7.134;2023-08-06T04:15:34;15.10;99.90
20143;DHT22;10509;46.476;7.134;2023-08-06T04:18:00;15.10;99.90
20143;DHT22;10509;46.476;7.134;2023-08-06T04:20:25;15.10;99.90
20143;DHT22;10509;46.476;7.134;2023-08-06T04:22:51;15.10;99.90
20143;DHT22;10509;46.476;7.134;2023-08-06T04:25:16;15.10;99.90
20143;DHT22;10509;46.476;7.134;2023-08-06T04:27:47;15.10;99.90
20143;DHT22;10509;46.476;7.134;2023-08-06T04:30:12;15.20;99.90
20143;DHT22;10509;46.476;7.134;2023-08-06T04:32:40;15.20;99.90
20143;DHT22;10509;46.476;7.134;2023-08-06T04:35:06;15.20;99.90
20143;DHT22;10509;46.476;7.134;2023-08-06T04:37:31;15.20;99.90
20143;DHT22;10509;46.476;7.134;2023-08-06T04:39:57;15.10;99.90
20143;DHT22;10509;46.476;7.134;2023-08-06T04:42:23;15.10;99.90
20143;DHT22;10509;46.476;7.134;2023-08-06T04:44:48;15.00;99.90
20143;DHT22;10509;46.476;7.134;2023-08-06T04:47:14;15.00;99.90
20143;DHT22;10509;46.476;7.134;2023-08-06T04:49:39;15.00;99.90
20143;DHT22;10509;46.476;7.134;2023-08-06T04:52:05;15.00;99.90
20143;DHT22;10509;46.476;7.134;2023-08-06T04:54:31;14.90;99.90
20143;DHT22;10509;46.476;7.134;2023-08-06T04:56:57;14.80;99.90
20143;DHT22;10509;46.476;7.134;2023-08-06T04:59:22;14.80;99.90
20143;DHT22;10509;46.476;7.134;2023-08-06T05:01:48;14.80;99.90
20143;DHT22;10509;46.476;7.134;2023-08-06T05:04:14;14.80;99.90
20143;DHT22;10509;46.476;7.134;2023-08-06T05:06:39;14.70;99.90
20143;DHT22;10509;46.476;7.134;2023-08-06T05:09:05;14.70;99.90
20143;DHT22;10509;46.476;7.134;2023-08-06T05:11:31;14.70;99.90
20143;DHT22;10509;46.476;7.134;2023-08-06T05:13:57;14.80;99.90
20143;DHT22;10509;46.476;7.134;2023-08-06T05:16:23;14.80;99.90
20143;DHT22;10509;46.476;7.134;2023-08-06T05:18:49;14.70;99.90
20143;DHT22;10509;46.476;7.134;2023-08-06T05:21:14;14.70;99.90
20143;DHT22;10509;46.476;7.134;2023-08-06T05:23:42;14.70;99.90
20143;DHT22;10509;46.476;7.134;2023-08-06T05:26:07;14.70;99.90
20143;DHT22;10509;46.476;7.134;2023-08-06T05:28:34;14.80;99.90
20143;DHT22;10509;46.476;7.134;2023-08-06T05:31:06;14.70;99.90
20143;DHT22;10509;46.476;7.134;2023-08-06T05:33:31;14.60;99.90
20143;DHT22;10509;46.476;7.134;2023-08-06T05:35:57;14.60;99.90
20143;DHT22;10509;46.476;7.134;2023-08-06T05:38:22;14.70;99.90
20143;DHT22;10509;46.476;7.134;2023-08-06T05:40:48;14.70;99.90
20143;DHT22;10509;46.476;7.134;2023-08-06T05:43:14;14.70;99.90
20143;DHT22;10509;46.476;7.134;2023-08-06T05:45:44;14.70;99.90
20143;DHT22;10509;46.476;7.134;2023-08-06T05:48:10;14.70;99.90
20143;DHT22;10509;46.476;7.134;2023-08-06T05:50:36;14.70;99.90
20143;DHT22;10509;46.476;7.134;2023-08-06T05:53:01;14.70;99.90
20143;DHT22;10509;46.476;7.134;2023-08-06T05:55:30;14.80;99.90
20143;DHT22;10509;46.476;7.134;2023-08-06T05:57:57;14.80;99.90
20143;DHT22;10509;46.476;7.134;2023-08-06T06:00:23;14.80;99.90
20143;DHT22;10509;46.476;7.134;2023-08-06T06:02:48;14.80;99.90
20143;DHT22;10509;46.476;7.134;2023-08-06T06:05:14;14.70;99.90
20143;DHT22;10509;46.476;7.134;2023-08-06T06:07:40;14.80;99.90
20143;DHT22;10509;46.476;7.134;2023-08-06T06:10:06;14.80;99.90
20143;DHT22;10509;46.476;7.134;2023-08-06T06:12:32;14.80;99.90
20143;DHT22;10509;46.476;7.134;2023-08-06T06:14:57;14.80;99.90
20143;DHT22;10509;46.476;7.134;2023-08-06T06:17:23;14.80;99.90
20143;DHT22;10509;46.476;7.134;2023-08-06T06:19:48;14.80;99.90
20143;DHT22;10509;46.476;7.134;2023-08-06T06:22:14;14.70;99.90
20143;DHT22;10509;46.476;7.134;2023-08-06T06:24:40;14.60;99.90
20143;DHT22;10509;46.476;7.134;2023-08-06T06:27:06;14.50;99.90
20143;DHT22;10509;46.476;7.134;2023-08-06T06:29:31;14.50;99.90
20143;DHT22;10509;46.476;7.134;2023-08-06T06:31:57;14.50;99.90
20143;DHT22;10509;46.476;7.134;2023-08-06T06:34:22;14.60;99.90
20143;DHT22;10509;46.476;7.134;2023-08-06T06:36:48;14.50;99.90
20143;DHT22;10509;46.476;7.134;2023-08-06T06:39:15;14.50;99.90
20143;DHT22;10509;46.476;7.134;2023-08-06T06:41:41;14.50;99.90
20143;DHT22;10509;46.476;7.134;2023-08-06T06:44:06;14.50;99.90
20143;DHT22;10509;46.476;7.134;2023-08-06T06:46:32;14.50;99.90
20143;DHT22;10509;46.476;7.134;2023-08-06T06:48:58;14.50;99.90
20143;DHT22;10509;46.476;7.134;2023-08-06T06:51:23;14.50;99.90
20143;DHT22;10509;46.476;7.134;2023-08-06T06:53:49;14.40;99.90
20143;DHT22;10509;46.476;7.134;2023-08-06T06:56:14;14.40;99.90
20143;DHT22;10509;46.476;7.134;2023-08-06T06:58:40;14.40;99.90
20143;DHT22;10509;46.476;7.134;2023-08-06T07:01:07;14.30;99.90
20143;DHT22;10509;46.476;7.134;2023-08-06T07:03:33;14.30;99.90
20143;DHT22;10509;46.476;7.134;2023-08-06T07:05:59;14.30;99.90
20143;DHT22;10509;46.476;7.134;2023-08-06T07:08:25;14.30;99.90
20143;DHT22;10509;46.476;7.134;2023-08-06T07:10:50;14.30;99.90
20143;DHT22;10509;46.476;7.134;2023-08-06T07:13:16;14.30;99.90
20143;DHT22;10509;46.476;7.134;2023-08-06T07:15:42;14.30;99.90
20143;DHT22;10509;46.476;7.134;2023-08-06T07:18:07;14.20;99.90
20143;DHT22;10509;46.476;7.134;2023-08-06T07:20:33;14.30;99.90
20143;DHT22;10509;46.476;7.134;2023-08-06T07:23:00;14.40;99.90
20143;DHT22;10509;46.476;7.134;2023-08-06T07:25:25;14.40;99.90
20143;DHT22;10509;46.476;7.134;2023-08-06T07:27:51;14.40;99.90
20143;DHT22;10509;46.476;7.134;2023-08-06T07:30:17;14.40;99.90
20143;DHT22;10509;46.476;7.134;2023-08-06T07:32:42;14.40;99.90
20143;DHT22;10509;46.476;7.134;2023-08-06T07:35:08;14.50;99.90
20143;DHT22;10509;46.476;7.134;2023-08-06T07:37:38;14.50;99.90
20143;DHT22;10509;46.476;7.134;2023-08-06T07:40:04;14.50;99.90
20143;DHT22;10509;46.476;7.134;2023-08-06T07:42:30;14.50;99.90
20143;DHT22;10509;46.476;7.134;2023-08-06T07:44:57;14.50;99.90
20143;DHT22;10509;46.476;7.134;2023-08-06T07:47:23;14.50;99.90
20143;DHT22;10509;46.476;7.134;2023-08-06T07:49:49;14.40;99.90
20143;DHT22;10509;46.476;7.134;2023-08-06T07:52:15;14.50;99.90
20143;DHT22;10509;46.476;7.134;2023-08-06T07:54:40;14.40;99.90
20143;DHT22;10509;46.476;7.134;2023-08-06T07:57:06;14.50;99.90
20143;DHT22;10509;46.476;7.134;2023-08-06T07:59:32;14.40;99.90
20143;DHT22;10509;46.476;7.134;2023-08-06T08:01:58;14.40;99.90
20143;DHT22;10509;46.476;7.134;2023-08-06T08:04:24;14.50;99.90
20143;DHT22;10509;46.476;7.134;2023-08-06T08:06:49;14.50;99.90
20143;DHT22;10509;46.476;7.134;2023-08-06T08:09:15;14.30;99.90
20143;DHT22;10509;46.476;7.134;2023-08-06T08:11:41;14.30;99.90
20143;DHT22;10509;46.476;7.134;2023-08-06T08:14:07;14.30;99.90
20143;DHT22;10509;46.476;7.134;2023-08-06T08:16:33;14.30;99.90
20143;DHT22;10509;46.476;7.134;2023-08-06T08:18:59;14.30;99.90
20143;DHT22;10509;46.476;7.134;2023-08-06T08:21:25;14.30;99.90
20143;DHT22;10509;46.476;7.134;2023-08-06T08:23:51;14.30;99.90
20143;DHT22;10509;46.476;7.134;2023-08-06T08:26:16;14.30;99.90
20143;DHT22;10509;46.476;7.134;2023-08-06T08:28:42;14.40;99.90
20143;DHT22;10509;46.476;7.134;2023-08-06T08:31:09;14.40;99.90
20143;DHT22;10509;46.476;7.134;2023-08-06T08:33:35;14.40;99.90
20143;DHT22;10509;46.476;7.134;2023-08-06T08:36:00;14.50;99.90
20143;DHT22;10509;46.476;7.134;2023-08-06T08:38:26;14.50;99.90
20143;DHT22;10509;46.476;7.134;2023-08-06T08:40:53;14.50;99.90
20143;DHT22;10509;46.476;7.134;2023-08-06T08:43:21;14.50;99.90
20143;DHT22;10509;46.476;7.134;2023-08-06T08:45:50;14.50;99.90
20143;DHT22;10509;46.476;7.134;2023-08-06T08:48:17;14.40;99.90
20143;DHT22;10509;46.476;7.134;2023-08-06T08:50:45;14.40;99.90
20143;DHT22;10509;46.476;7.134;2023-08-06T08:53:13;14.40;99.90
20143;DHT22;10509;46.476;7.134;2023-08-06T08:55:39;14.50;99.90
20143;DHT22;10509;46.476;7.134;2023-08-06T08:58:05;14.60;99.90
20143;DHT22;10509;46.476;7.134;2023-08-06T09:00:32;14.60;99.90
20143;DHT22;10509;46.476;7.134;2023-08-06T09:02:59;14.60;99.90
20143;DHT22;10509;46.476;7.134;2023-08-06T09:05:28;14.60;99.90
20143;DHT22;10509;46.476;7.134;2023-08-06T09:08:04;14.70;99.90
20143;DHT22;10509;46.476;7.134;2023-08-06T09:10:30;14.70;99.90
20143;DHT22;10509;46.476;7.134;2023-08-06T09:12:56;14.80;99.90
20143;DHT22;10509;46.476;7.134;2023-08-06T09:15:26;15.00;99.90
20143;DHT22;10509;46.476;7.134;2023-08-06T09:17:53;15.00;99.90
20143;DHT22;10509;46.476;7.134;2023-08-06T09:20:19;15.10;99.90
20143;DHT22;10509;46.476;7.134;2023-08-06T09:22:45;15.10;99.90
20143;DHT22;10509;46.476;7.134;2023-08-06T09:25:11;15.20;99.90
20143;DHT22;10509;46.476;7.134;2023-08-06T09:27:39;15.20;99.90
20143;DHT22;10509;46.476;7.134;2023-08-06T09:30:07;15.20;99.90
20143;DHT22;10509;46.476;7.134;2023-08-06T09:32:49;15.20;99.90
20143;DHT22;10509;46.476;7.134;2023-08-06T09:35:21;15.20;99.90
20143;DHT22;10509;46.476;7.134;2023-08-06T09:37:46;15.30;99.90
20143;DHT22;10509;46.476;7.134;2023-08-06T09:40:29;15.30;99.90
20143;DHT22;10509;46.476;7.134;2023-08-06T09:42:56;15.20;99.90
20143;DHT22;10509;46.476;7.134;2023-08-06T09:45:23;15.20;99.90
20143;DHT22;10509;46.476;7.134;2023-08-06T09:47:50;15.30;99.90
20143;DHT22;10509;46.476;7.134;2023-08-06T09:50:19;15.30;99.90
20143;DHT22;10509;46.476;7.134;2023-08-06T09:52:46;15.40;99.90
20143;DHT22;10509;46.476;7.134;2023-08-06T09:55:13;15.50;99.90
20143;DHT22;10509;46.476;7.134;2023-08-06T09:57:40;15.70;99.90
20143;DHT22;10509;46.476;7.134;2023-08-06T10:00:07;15.70;99.90
20143;DHT22;10509;46.476;7.134;2023-08-06T10:02:37;15.70;99.90
20143;DHT22;10509;46.476;7.134;2023-08-06T10:05:03;15.70;99.90
20143;DHT22;10509;46.476;7.134;2023-08-06T10:07:30;15.70;99.90
20143;DHT22;10509;46.476;7.134;2023-08-06T10:09:56;15.70;99.90
20143;DHT22;10509;46.476;7.134;2023-08-06T10:12:22;15.70;99.90
20143;DHT22;10509;46.476;7.134;2023-08-06T10:14:52;15.70;99.90
20143;DHT22;10509;46.476;7.134;2023-08-06T10:17:21;15.70;99.90
20143;DHT22;10509;46.476;7.134;2023-08-06T10:19:48;15.60;99.90
20143;DHT22;10509;46.476;7.134;2023-08-06T10:22:16;15.70;99.90
20143;DHT22;10509;46.476;7.134;2023-08-06T10:24:49;15.60;99.90
20143;DHT22;10509;46.476;7.134;2023-08-06T10:27:52;15.60;99.90
20143;DHT22;10509;46.476;7.134;2023-08-06T10:32:57;15.70;99.90
20143;DHT22;10509;46.476;7.134;2023-08-06T10:35:40;15.70;99.90
20143;DHT22;10509;46.476;7.134;2023-08-06T10:40:42;15.80;99.90
20143;DHT22;10509;46.476;7.134;2023-08-06T10:43:08;15.90;99.90
20143;DHT22;10509;46.476;7.134;2023-08-06T10:45:50;15.90;99.90
20143;DHT22;10509;46.476;7.134;2023-08-06T10:48:39;15.90;99.90
20143;DHT22;10509;46.476;7.134;2023-08-06T10:51:09;15.90;99.90
20143;DHT22;10509;46.476;7.134;2023-08-06T10:53:36;15.90;99.90
20143;DHT22;10509;46.476;7.134;2023-08-06T10:56:02;15.90;99.90
20143;DHT22;10509;46.476;7.134;2023-08-06T10:58:37;15.90;99.90
20143;DHT22;10509;46.476;7.134;2023-08-06T11:01:02;16.00;99.90
20143;DHT22;10509;46.476;7.134;2023-08-06T11:03:28;16.00;99.90
20143;DHT22;10509;46.476;7.134;2023-08-06T11:05:54;16.10;99.90
20143;DHT22;10509;46.476;7.134;2023-08-06T11:08:25;16.10;99.90
20143;DHT22;10509;46.476;7.134;2023-08-06T11:10:50;16.20;99.90
20143;DHT22;10509;46.476;7.134;2023-08-06T11:13:21;16.10;99.90
20143;DHT22;10509;46.476;7.134;2023-08-06T11:15:47;16.20;99.90
20143;DHT22;10509;46.476;7.134;2023-08-06T11:18:12;16.20;99.90
20143;DHT22;10509;46.476;7.134;2023-08-06T11:20:40;16.10;99.90
20143;DHT22;10509;46.476;7.134;2023-08-06T11:23:06;16.10;99.90
20143;DHT22;10509;46.476;7.134;2023-08-06T11:25:36;16.00;99.90
20143;DHT22;10509;46.476;7.134;2023-08-06T11:28:03;15.90;99.90
20143;DHT22;10509;46.476;7.134;2023-08-06T11:30:29;15.90;99.90
20143;DHT22;10509;46.476;7.134;2023-08-06T11:32:54;15.90;99.90
20143;DHT22;10509;46.476;7.134;2023-08-06T11:35:20;15.90;99.90
20143;DHT22;10509;46.476;7.134;2023-08-06T11:37:46;15.90;99.90
20143;DHT22;10509;46.476;7.134;2023-08-06T11:40:13;15.90;99.90
20143;DHT22;10509;46.476;7.134;2023-08-06T11:42:39;16.00;99.90
20143;DHT22;10509;46.476;7.134;2023-08-06T11:45:05;16.00;99.90
20143;DHT22;10509;46.476;7.134;2023-08-06T11:47:31;15.90;99.90
20143;DHT22;10509;46.476;7.134;2023-08-06T11:49:57;15.90;99.90
20143;DHT22;10509;46.476;7.134;2023-08-06T11:52:24;15.90;99.90
20143;DHT22;10509;46.476;7.134;2023-08-06T11:55:04;15.90;99.90
20143;DHT22;10509;46.476;7.134;2023-08-06T11:57:32;15.90;99.90
20143;DHT22;10509;46.476;7.134;2023-08-06T12:00:07;15.90;99.90
20143;DHT22;10509;46.476;7.134;2023-08-06T12:02:34;16.00;99.90
20143;DHT22;10509;46.476;7.134;2023-08-06T12:05:09;16.00;99.90
20143;DHT22;10509;46.476;7.134;2023-08-06T12:07:45;16.00;99.90
20143;DHT22;10509;46.476;7.134;2023-08-06T12:10:16;16.00;99.90
20143;DHT22;10509;46.476;7.134;2023-08-06T12:12:42;16.10;99.90
20143;DHT22;10509;46.476;7.134;2023-08-06T12:15:09;16.10;99.90
20143;DHT22;10509;46.476;7.134;2023-08-06T12:17:35;16.10;99.90
20143;DHT22;10509;46.476;7.134;2023-08-06T12:20:06;16.10;99.90
20143;DHT22;10509;46.476;7.134;2023-08-06T12:22:36;16.10;99.90
20143;DHT22;10509;46.476;7.134;2023-08-06T12:25:07;16.20;99.90
20143;DHT22;10509;46.476;7.134;2023-08-06T12:27:36;16.20;99.90
20143;DHT22;10509;46.476;7.134;2023-08-06T12:30:03;16.20;99.90
20143;DHT22;10509;46.476;7.134;2023-08-06T12:32:29;16.10;99.90
20143;DHT22;10509;46.476;7.134;2023-08-06T12:34:55;16.10;99.90
20143;DHT22;10509;46.476;7.134;2023-08-06T12:37:20;16.00;99.90
20143;DHT22;10509;46.476;7.134;2023-08-06T12:39:46;16.00;99.90
20143;DHT22;10509;46.476;7.134;2023-08-06T12:42:12;16.00;99.90
20143;DHT22;10509;46.476;7.134;2023-08-06T12:44:38;15.90;99.90
20143;DHT22;10509;46.476;7.134;2023-08-06T12:47:04;15.90;99.90
20143;DHT22;10509;46.476;7.134;2023-08-06T12:49:29;15.80;99.90
20143;DHT22;10509;46.476;7.134;2023-08-06T12:51:57;15.80;99.90
20143;DHT22;10509;46.476;7.134;2023-08-06T12:54:25;15.80;99.90
20143;DHT22;10509;46.476;7.134;2023-08-06T12:56:51;15.90;99.90
20143;DHT22;10509;46.476;7.134;2023-08-06T12:59:17;16.00;99.90
20143;DHT22;10509;46.476;7.134;2023-08-06T13:01:44;16.10;99.90
20143;DHT22;10509;46.476;7.134;2023-08-06T13:04:10;16.20;99.90
20143;DHT22;10509;46.476;7.134;2023-08-06T13:06:36;16.20;99.90
20143;DHT22;10509;46.476;7.134;2023-08-06T13:09:09;16.20;99.90
20143;DHT22;10509;46.476;7.134;2023-08-06T13:11:35;16.20;99.90
20143;DHT22;10509;46.476;7.134;2023-08-06T13:14:06;16.20;99.90
20143;DHT22;10509;46.476;7.134;2023-08-06T13:16:33;16.20;99.90
20143;DHT22;10509;46.476;7.134;2023-08-06T13:18:59;16.20;99.90
20143;DHT22;10509;46.476;7.134;2023-08-06T13:21:31;16.20;99.90
20143;DHT22;10509;46.476;7.134;2023-08-06T13:23:57;16.20;99.90
20143;DHT22;10509;46.476;7.134;2023-08-06T13:26:22;16.20;99.90
20143;DHT22;10509;46.476;7.134;2023-08-06T13:28:48;16.20;99.90
20143;DHT22;10509;46.476;7.134;2023-08-06T13:31:14;16.30;99.90
20143;DHT22;10509;46.476;7.134;2023-08-06T13:33:40;16.50;99.90
20143;DHT22;10509;46.476;7.134;2023-08-06T13:36:05;16.90;99.90
20143;DHT22;10509;46.476;7.134;2023-08-06T13:38:31;17.20;99.90
20143;DHT22;10509;46.476;7.134;2023-08-06T13:40:57;17.40;99.90
20143;DHT22;10509;46.476;7.134;2023-08-06T13:43:24;17.60;99.90
20143;DHT22;10509;46.476;7.134;2023-08-06T13:45:49;17.70;99.90
20143;DHT22;10509;46.476;7.134;2023-08-06T13:48:15;17.80;99.90
20143;DHT22;10509;46.476;7.134;2023-08-06T13:50:40;17.40;99.90
20143;DHT22;10509;46.476;7.134;2023-08-06T13:53:06;17.10;99.90
20143;DHT22;10509;46.476;7.134;2023-08-06T13:55:32;16.80;99.90
20143;DHT22;10509;46.476;7.134;2023-08-06T13:57:57;16.60;99.90
20143;DHT22;10509;46.476;7.134;2023-08-06T14:00:23;16.60;99.90
20143;DHT22;10509;46.476;7.134;2023-08-06T14:02:49;16.50;99.90
20143;DHT22;10509;46.476;7.134;2023-08-06T14:05:14;16.50;99.90
20143;DHT22;10509;46.476;7.134;2023-08-06T14:07:40;16.40;99.90
20143;DHT22;10509;46.476;7.134;2023-08-06T14:10:06;16.00;99.90
20143;DHT22;10509;46.476;7.134;2023-08-06T14:12:32;15.80;99.90
20143;DHT22;10509;46.476;7.134;2023-08-06T14:14:57;15.60;99.90
20143;DHT22;10509;46.476;7.134;2023-08-06T14:17:24;15.40;99.90
20143;DHT22;10509;46.476;7.134;2023-08-06T14:19:49;15.30;99.90
20143;DHT22;10509;46.476;7.134;2023-08-06T14:22:15;15.30;99.90
20143;DHT22;10509;46.476;7.134;2023-08-06T14:24:41;15.30;99.90
20143;DHT22;10509;46.476;7.134;2023-08-06T14:27:07;15.40;99.90
20143;DHT22;10509;46.476;7.134;2023-08-06T14:29:32;15.50;99.90
20143;DHT22;10509;46.476;7.134;2023-08-06T14:31:58;15.50;99.90
20143;DHT22;10509;46.476;7.134;2023-08-06T14:34:24;15.40;99.90
20143;DHT22;10509;46.476;7.134;2023-08-06T14:36:49;15.40;99.90
20143;DHT22;10509;46.476;7.134;2023-08-06T14:39:15;15.30;99.90
20143;DHT22;10509;46.476;7.134;2023-08-06T14:41:41;15.10;99.90
20143;DHT22;10509;46.476;7.134;2023-08-06T14:44:06;15.10;99.90
20143;DHT22;10509;46.476;7.134;2023-08-06T14:46:33;15.20;99.90
20143;DHT22;10509;46.476;7.134;2023-08-06T14:48:58;15.30;99.90
20143;DHT22;10509;46.476;7.134;2023-08-06T14:51:24;15.20;99.90
20143;DHT22;10509;46.476;7.134;2023-08-06T14:53:50;15.10;99.90
20143;DHT22;10509;46.476;7.134;2023-08-06T14:56:15;15.20;99.90
20143;DHT22;10509;46.476;7.134;2023-08-06T14:58:41;15.10;99.90
20143;DHT22;10509;46.476;7.134;2023-08-06T15:01:07;15.10;99.90
20143;DHT22;10509;46.476;7.134;2023-08-06T15:03:33;15.00;99.90
20143;DHT22;10509;46.476;7.134;2023-08-06T15:05:59;15.00;99.90
20143;DHT22;10509;46.476;7.134;2023-08-06T15:08:25;14.90;99.90
20143;DHT22;10509;46.476;7.134;2023-08-06T15:10:51;14.70;99.90
20143;DHT22;10509;46.476;7.134;2023-08-06T15:13:18;14.70;99.90
20143;DHT22;10509;46.476;7.134;2023-08-06T15:15:43;14.80;99.90
20143;DHT22;10509;46.476;7.134;2023-08-06T15:18:10;14.90;99.90
20143;DHT22;10509;46.476;7.134;2023-08-06T15:20:36;14.90;99.90
20143;DHT22;10509;46.476;7.134;2023-08-06T15:23:02;14.90;99.90
20143;DHT22;10509;46.476;7.134;2023-08-06T15:25:28;15.00;99.90
20143;DHT22;10509;46.476;7.134;2023-08-06T15:27:53;15.10;99.90
20143;DHT22;10509;46.476;7.134;2023-08-06T15:30:19;15.20;99.90
20143;DHT22;10509;46.476;7.134;2023-08-06T15:32:46;15.20;99.90
20143;DHT22;10509;46.476;7.134;2023-08-06T15:35:12;15.40;99.90